Detall de PIREP

Printer-friendly versionPDF version

[2016/02/07 07:36:00]
Flight IATA:CT2114
Pilot Number:041
Company ICAO:CAT
Aircraft Type:A320/E
PAX:89
Departing Airport: LEVC
Destination Airport: LEXJ
Alternate Airport:LEMD
Online: VATSIM
Route:CENTA A33 PRADO UN733 CJN DCT RBO UN867 BLV
Flight Level:FL310
No Slew and time accel
No pause
Crash detect
Detect pilot in Cockpit between each 30 and 45 minutes
07:36 Zero fuel Weight: 136751 Lbs, Fuel Weight: 13765 Lbs
07:36 Take-off
07:36 Take off Weight: 150515 Lbs
07:36 Wind: 263º @ 034 Knots Heading: 350º
07:36 POS N42º 45´ 42´´ W002º 54´ 01´´
07:36 Gear Up: 254 Knots
07:36 TOC
07:36 Fuel Weight: 13763 Lb
07:37 TOD
07:37 Fuel Weight: 13736 Lb
07:49 Flaps:1 at 251 Knots
07:50 Flaps:2 at 249 Knots
07:50 Flaps:3 at 250 Knots
07:51 Wind:230º@013 Knots Heading: 287º Ground Speed: 213 Knots Altitude 2171 ft
07:51 Flaps:5 at 220 Knots
07:51 Gear Down: 203 Knots
07:53 TouchDown:Rate -173 ft/min Speed: 133 Knots
07:54 VATSIM:LEXJ 070730Z 28014G24KT 9999 FEW048 SCT060 09/02 Q1015
07:54 Land
07:54 Wind:284º@014 Knots
07:54 Heading: 289º
07:54 Flight Duration: 00:18
07:54 Landing Weight: 148699 Lbs
07:54 POS N43º 25´ 36´´ W003º 49´ 06´´
07:55 Parking brakes on
07:55 Block to Block Duration: 00:19
07:55 Final Fuel: 11735 Lbls
07:55 Spent Fuel: 2030 Lbls
07:55 Flight Length: 72 NM
07:55 TOD Land Length: 67 NM

Exportar CSV

Powered by Drupal - Modified by Danger4k